createdAt,value
2018-06-05T00:01:15.368Z,21.10
2018-06-05T00:03:47.137Z,19.83
2018-06-05T00:06:16.997Z,20.17
2018-06-05T00:08:47.986Z,21.10
2018-06-05T00:11:18.867Z,18.87
2018-06-05T00:13:48.925Z,19.33
2018-06-05T00:16:19.497Z,17.43
2018-06-05T00:18:49.273Z,22.03
2018-06-05T00:21:19.420Z,22.37
2018-06-05T00:23:49.100Z,22.57
2018-06-05T00:26:18.844Z,22.57
2018-06-05T00:28:48.773Z,21.83
2018-06-05T00:31:18.585Z,20.77
2018-06-05T00:33:48.281Z,22.47
2018-06-05T00:36:18.035Z,21.93
2018-06-05T00:38:47.843Z,20.30
2018-06-05T00:41:17.518Z,21.83
2018-06-05T00:43:48.048Z,21.73
2018-06-05T00:46:20.558Z,21.70
2018-06-05T00:48:50.227Z,22.63
2018-06-05T00:51:36.878Z,21.67
2018-06-05T00:54:08.309Z,22.77
2018-06-05T00:56:38.602Z,22.63
2018-06-05T00:59:07.968Z,21.60
2018-06-05T01:01:37.648Z,19.83
2018-06-05T01:04:07.461Z,21.80
2018-06-05T01:06:37.337Z,21.40
2018-06-05T01:09:10.131Z,23.77
2018-06-05T01:11:39.423Z,22.73
2018-06-05T01:14:09.066Z,23.83
2018-06-05T01:16:38.680Z,23.73
2018-06-05T01:19:08.963Z,24.73
2018-06-05T01:21:38.855Z,22.17
2018-06-05T01:24:09.421Z,24.07
2018-06-05T01:26:39.397Z,24.23
2018-06-05T01:29:09.062Z,24.10
2018-06-05T01:31:38.637Z,22.63
2018-06-05T01:34:08.300Z,20.90
2018-06-05T01:36:38.056Z,18.50
2018-06-05T01:39:10.134Z,18.77
2018-06-05T01:41:40.373Z,19.10
2018-06-05T01:44:10.052Z,19.50
2018-06-05T01:46:39.693Z,22.30
2018-06-05T01:49:09.503Z,20.43
2018-06-05T01:51:39.163Z,19.00
2018-06-05T01:54:08.784Z,19.50
2018-06-05T01:56:38.512Z,18.47
2018-06-05T01:59:08.784Z,19.87
2018-06-05T02:01:38.395Z,20.77
2018-06-05T02:04:08.034Z,22.10
2018-06-05T02:06:37.676Z,19.43
2018-06-05T02:09:09.479Z,18.23
2018-06-05T02:11:39.152Z,18.37
2018-06-05T02:14:08.789Z,18.17
2018-06-05T02:17:41.634Z,17.17
2018-06-05T02:20:11.239Z,20.37
2018-06-05T02:22:40.907Z,18.60
2018-06-05T02:25:10.584Z,18.90
2018-06-05T02:27:40.186Z,19.80
2018-06-05T02:30:09.869Z,18.20
2018-06-05T02:32:39.756Z,18.05
2018-06-05T02:35:09.479Z,18.53
2018-06-05T02:37:38.792Z,18.17
2018-06-05T02:40:08.383Z,18.37
2018-06-05T02:42:38.399Z,18.53
2018-06-05T02:45:08.072Z,15.33
2018-06-05T02:47:38.594Z,19.20
2018-06-05T02:50:08.180Z,18.13
2018-06-05T02:52:37.853Z,18.70
2018-06-05T02:55:08.157Z,20.53
2018-06-05T02:57:38.889Z,18.93
2018-06-05T03:00:08.563Z,18.97
2018-06-05T03:02:39.036Z,17.23
2018-06-05T03:05:08.737Z,19.13
2018-06-05T03:07:38.579Z,20.13
2018-06-05T03:10:08.482Z,18.87
2018-06-05T03:12:38.347Z,17.03
2018-06-05T03:15:08.140Z,17.77
2018-06-05T03:17:38.610Z,18.53
2018-06-05T03:20:09.372Z,17.43
2018-06-05T03:22:39.125Z,16.23
2018-06-05T03:25:09.382Z,18.53
2018-06-05T03:27:39.053Z,19.50
2018-06-05T03:31:38.586Z,17.20
2018-06-05T03:34:08.697Z,17.53
2018-06-05T03:36:38.429Z,17.90
2018-06-05T03:39:08.442Z,19.07
2018-06-05T03:41:38.909Z,19.47
2018-06-05T03:44:09.479Z,18.13
2018-06-05T03:46:39.265Z,20.17
2018-06-05T03:49:10.704Z,17.37
2018-06-05T03:51:41.777Z,19.60
2018-06-05T03:54:11.725Z,16.07
2018-06-05T03:56:43.011Z,16.70
2018-06-05T03:59:13.354Z,17.17
2018-06-05T04:01:43.820Z,17.40
2018-06-05T04:04:14.913Z,16.77
2018-06-05T04:06:44.732Z,17.40
2018-06-05T04:09:15.105Z,16.43
2018-06-05T04:11:44.765Z,16.83
2018-06-05T04:14:15.341Z,15.50
2018-06-05T04:16:45.367Z,17.43
2018-06-05T04:19:15.929Z,19.43
2018-06-05T04:21:45.714Z,21.80
2018-06-05T04:24:15.986Z,18.57
2018-06-05T04:26:45.772Z,17.97
2018-06-05T04:29:15.552Z,18.03
2018-06-05T04:31:46.275Z,17.57
2018-06-05T04:34:18.441Z,16.97
2018-06-05T04:36:48.253Z,17.67
2018-06-05T04:39:19.348Z,18.23
2018-06-05T04:41:49.096Z,16.70
2018-06-05T04:44:19.416Z,16.93
2018-06-05T04:46:49.725Z,17.57
2018-06-05T04:49:22.198Z,18.97
2018-06-05T04:51:52.871Z,17.83
2018-06-05T04:54:22.561Z,18.97
2018-06-05T04:56:52.745Z,19.07
2018-06-05T04:59:24.663Z,16.73
2018-06-05T05:01:55.352Z,17.33
2018-06-05T05:04:25.478Z,16.30
2018-06-05T05:06:55.517Z,16.73
2018-06-05T05:09:26.067Z,18.40
2018-06-05T05:11:55.715Z,19.47
2018-06-05T05:14:26.344Z,17.87
2018-06-05T05:16:56.305Z,16.67
2018-06-05T05:19:26.408Z,18.37
2018-06-05T05:21:56.295Z,14.77
2018-06-05T05:24:26.769Z,15.10
2018-06-05T05:26:57.767Z,16.50
2018-06-05T05:29:27.505Z,16.87
2018-06-05T05:31:57.223Z,17.63
2018-06-05T05:34:27.456Z,19.23
2018-06-05T05:36:57.460Z,16.97
2018-06-05T05:39:27.128Z,17.00
2018-06-05T05:41:57.316Z,16.67
2018-06-05T05:44:29.314Z,17.57
2018-06-05T05:46:59.792Z,16.93
2018-06-05T05:49:29.514Z,17.57
2018-06-05T05:52:00.721Z,17.20
2018-06-05T05:54:31.503Z,17.90
2018-06-05T05:57:01.373Z,17.67
2018-06-05T05:59:34.604Z,19.43
2018-06-05T06:02:05.371Z,18.70
2018-06-05T06:04:36.694Z,26.20
2018-06-05T06:07:07.519Z,25.37
2018-06-05T06:09:37.493Z,21.63
2018-06-05T06:12:07.259Z,21.70
2018-06-05T06:14:36.932Z,21.63
2018-06-05T06:17:06.683Z,20.60
2018-06-05T06:19:36.561Z,19.93
2018-06-05T06:22:07.143Z,20.30
2018-06-05T06:24:36.865Z,19.20
2018-06-05T06:27:06.700Z,20.87
2018-06-05T06:29:37.260Z,21.37
2018-06-05T06:32:09.487Z,18.83
2018-06-05T06:34:40.352Z,17.63
2018-06-05T06:37:10.651Z,17.70
2018-06-05T06:39:40.904Z,20.40
2018-06-05T06:42:10.750Z,17.93
2018-06-05T06:44:40.576Z,19.77
2018-06-05T06:47:10.838Z,23.47
2018-06-05T06:49:40.553Z,20.93
2018-06-05T06:52:11.561Z,22.10
2018-06-05T06:54:41.792Z,19.23
2018-06-05T06:57:13.548Z,21.07
2018-06-05T06:59:43.384Z,19.93
2018-06-05T07:02:14.766Z,19.37
2018-06-05T07:04:44.641Z,17.97
2018-06-05T07:07:15.662Z,21.47
2018-06-05T07:09:46.585Z,20.47
2018-06-05T07:12:16.569Z,20.37
2018-06-05T07:14:46.684Z,20.77
2018-06-05T07:17:22.183Z,20.93
2018-06-05T07:19:52.805Z,20.33
2018-06-05T07:22:25.808Z,19.70
2018-06-05T07:24:56.731Z,19.13
2018-06-05T07:27:28.136Z,21.55
2018-06-05T07:30:01.525Z,20.40
2018-06-05T07:32:31.720Z,18.13
2018-06-05T07:35:02.749Z,19.97
2018-06-05T07:37:33.683Z,19.43
2018-06-05T07:40:04.652Z,20.40
2018-06-05T07:42:34.647Z,21.87
2018-06-05T07:45:05.041Z,20.77
2018-06-05T07:47:35.631Z,21.20
2018-06-05T07:50:06.479Z,19.70
2018-06-05T07:52:37.263Z,20.63
2018-06-05T07:55:07.869Z,23.10
2018-06-05T07:57:38.920Z,19.23
2018-06-05T08:00:08.706Z,20.87
2018-06-05T08:02:40.245Z,21.33
2018-06-05T08:05:10.066Z,20.57
2018-06-05T08:07:40.658Z,20.63
2018-06-05T08:10:10.606Z,21.20
2018-06-05T08:12:41.341Z,21.30
2018-06-05T08:15:11.331Z,18.83
2018-06-05T08:17:41.913Z,17.83
2018-06-05T08:20:11.811Z,21.10
2018-06-05T08:22:56.291Z,18.57
2018-06-05T08:25:26.246Z,19.48
2018-06-05T08:27:56.052Z,19.77
2018-06-05T08:30:26.889Z,18.43
2018-06-05T08:32:58.411Z,20.27
2018-06-05T08:35:28.740Z,18.67
2018-06-05T08:38:01.272Z,20.63
2018-06-05T08:40:31.294Z,19.57
2018-06-05T08:43:01.818Z,17.90
2018-06-05T08:45:32.253Z,18.80
2018-06-05T08:48:02.241Z,18.40
2018-06-05T08:50:32.682Z,18.90
2018-06-05T08:53:03.096Z,16.90
2018-06-05T08:55:33.591Z,16.60
2018-06-05T08:58:04.016Z,18.97
2018-06-05T09:00:34.451Z,19.40
2018-06-05T09:03:04.297Z,20.10
2018-06-05T09:05:34.838Z,17.70
2018-06-05T09:08:08.813Z,17.40
2018-06-05T09:10:39.555Z,17.30
2018-06-05T09:13:09.347Z,20.20
2018-06-05T09:15:40.466Z,20.50
2018-06-05T09:18:12.100Z,20.47
2018-06-05T09:20:43.744Z,22.00
2018-06-05T09:23:14.133Z,20.57
2018-06-05T09:25:45.506Z,22.73
2018-06-05T09:28:15.300Z,20.93
2018-06-05T09:30:45.980Z,22.10
2018-06-05T09:33:15.685Z,22.27
2018-06-05T09:35:46.457Z,22.00
2018-06-05T09:38:17.357Z,19.57
2018-06-05T09:40:47.096Z,18.73
2018-06-05T09:43:18.334Z,17.10
2018-06-05T09:45:51.341Z,17.33
2018-06-05T09:48:24.576Z,18.47
2018-06-05T09:51:00.178Z,15.47
2018-06-05T09:53:30.873Z,15.13
2018-06-05T09:56:01.292Z,18.33
2018-06-05T09:58:32.173Z,16.77
2018-06-05T10:01:04.966Z,15.90
2018-06-05T10:03:35.763Z,14.90
2018-06-05T10:06:05.676Z,15.97
2018-06-05T10:08:35.544Z,16.10
2018-06-05T10:11:06.243Z,14.63
2018-06-05T10:13:36.178Z,14.57
2018-06-05T10:16:29.394Z,15.27
2018-06-05T10:19:22.633Z,16.27
2018-06-05T10:22:22.632Z,15.10
2018-06-05T10:24:53.829Z,16.37
2018-06-05T10:27:24.003Z,17.07
2018-06-05T10:29:54.793Z,16.47
2018-06-05T10:32:26.148Z,18.23
2018-06-05T10:34:57.228Z,18.20
2018-06-05T10:37:27.692Z,16.23
2018-06-05T10:39:58.775Z,17.27
2018-06-05T10:42:29.120Z,16.63
2018-06-05T10:44:59.016Z,16.53
2018-06-05T10:47:29.467Z,16.70
2018-06-05T10:49:59.251Z,16.27
2018-06-05T10:52:29.201Z,14.90
2018-06-05T10:54:59.156Z,16.13
2018-06-05T10:57:29.828Z,15.53
2018-06-05T11:00:00.947Z,14.60
2018-06-05T11:02:31.135Z,15.00
2018-06-05T11:05:00.907Z,15.57
2018-06-05T11:07:30.878Z,17.40
2018-06-05T11:10:04.273Z,14.27
2018-06-05T11:12:34.037Z,14.13
2018-06-05T11:15:03.885Z,14.90
2018-06-05T11:17:33.890Z,14.20
2018-06-05T11:20:03.937Z,14.47
2018-06-05T11:22:35.289Z,16.40
2018-06-05T11:25:06.787Z,14.67
2018-06-05T11:27:36.736Z,13.93
2018-06-05T11:30:07.121Z,14.47
2018-06-05T11:32:36.991Z,13.43
2018-06-05T11:35:07.297Z,14.40
2018-06-05T11:37:37.616Z,14.43
2018-06-05T11:40:07.685Z,14.90
2018-06-05T11:42:37.453Z,14.65
2018-06-05T11:45:07.601Z,15.40
2018-06-05T11:47:38.107Z,15.60
2018-06-05T11:50:08.515Z,15.05
2018-06-05T11:52:39.253Z,14.33
2018-06-05T11:55:10.246Z,14.27
2018-06-05T11:57:42.713Z,12.93
2018-06-05T12:00:12.619Z,13.73
2018-06-05T12:02:44.374Z,13.70
2018-06-05T12:05:15.055Z,13.72
2018-06-05T12:07:48.257Z,14.05
2018-06-05T12:10:19.162Z,13.75
2018-06-05T12:12:49.888Z,12.60
2018-06-05T12:15:20.260Z,11.75
2018-06-05T12:17:51.145Z,13.07
2018-06-05T12:20:21.208Z,15.55
2018-06-05T12:22:53.291Z,15.45
2018-06-05T12:25:24.549Z,15.45
2018-06-05T12:27:57.121Z,16.70
2018-06-05T12:30:27.398Z,15.33
2018-06-05T12:32:59.119Z,15.30
2018-06-05T12:35:30.220Z,14.15
2018-06-05T12:38:00.649Z,14.13
2018-06-05T12:40:31.346Z,17.13
2018-06-05T12:43:01.342Z,16.82
2018-06-05T12:45:33.812Z,14.90
2018-06-05T12:48:04.786Z,13.90
2018-06-05T12:50:34.672Z,12.58
2018-06-05T12:53:06.101Z,12.25
2018-06-05T12:55:36.228Z,13.62
2018-06-05T12:58:07.135Z,14.58
2018-06-05T13:00:37.408Z,13.18
2018-06-05T13:03:08.324Z,17.70
2018-06-05T13:05:38.760Z,13.32
2018-06-05T13:08:09.676Z,14.07
2018-06-05T13:10:40.428Z,16.62
2018-06-05T13:13:10.148Z,16.95
2018-06-05T13:15:43.400Z,15.98
2018-06-05T13:18:13.804Z,15.15
2018-06-05T13:20:45.277Z,17.52
2018-06-05T13:23:15.683Z,14.47
2018-06-05T13:25:45.718Z,15.50
2018-06-05T13:28:17.649Z,15.40
2018-06-05T13:30:49.686Z,15.35
2018-06-05T13:33:22.101Z,15.25
2018-06-05T13:35:52.655Z,15.20
2018-06-05T13:38:24.971Z,16.17
2018-06-05T13:40:55.225Z,15.13
2018-06-05T13:43:27.303Z,17.02
2018-06-05T13:45:57.816Z,13.40
2018-06-05T13:48:29.877Z,15.32
2018-06-05T13:51:03.241Z,15.77
2018-06-05T13:53:34.201Z,15.60
2018-06-05T13:56:05.965Z,15.38
2018-06-05T13:58:36.477Z,14.40
2018-06-05T14:01:10.619Z,16.03
2018-06-05T14:03:40.905Z,15.93
2018-06-05T14:06:11.633Z,14.70
2018-06-05T14:08:42.811Z,12.47
2018-06-05T14:11:14.753Z,12.90
2018-06-05T14:13:44.776Z,15.10
2018-06-05T14:16:18.687Z,13.68
2018-06-05T14:18:49.593Z,15.43
2018-06-05T14:21:19.456Z,13.10
2018-06-05T14:23:49.497Z,10.50
2018-06-05T14:26:22.111Z,9.63
2018-06-05T14:28:53.353Z,9.50
2018-06-05T14:31:23.418Z,15.43
2018-06-05T14:33:54.418Z,13.68
2018-06-05T14:36:24.612Z,14.15
2018-06-05T14:38:55.203Z,13.30
2018-06-05T14:41:26.021Z,14.00
2018-06-05T14:43:57.283Z,14.07
2018-06-05T14:46:28.343Z,12.95
2018-06-05T14:48:58.859Z,11.28
2018-06-05T14:51:28.867Z,10.80
2018-06-05T14:53:59.587Z,11.93
2018-06-05T14:56:30.343Z,10.68
2018-06-05T14:59:01.359Z,11.68
2018-06-05T15:01:32.297Z,9.38
2018-06-05T15:04:02.435Z,9.20
2018-06-05T15:06:32.753Z,10.72
2018-06-05T15:09:05.558Z,9.90
2018-06-05T15:11:37.148Z,10.63
2018-06-05T15:14:08.511Z,8.35
2018-06-05T15:16:40.866Z,7.90
2018-06-05T15:19:12.226Z,7.40
2018-06-05T15:21:42.475Z,7.58
2018-06-05T15:24:13.128Z,8.00
2018-06-05T15:26:45.668Z,9.15
2018-06-05T15:29:15.929Z,7.90
2018-06-05T15:31:47.313Z,8.23
2018-06-05T15:34:18.040Z,7.95
2018-06-05T15:36:48.793Z,9.55
2018-06-05T15:39:21.746Z,9.65
2018-06-05T15:41:51.495Z,8.03
2018-06-05T15:44:22.147Z,7.60
2018-06-05T15:46:51.990Z,6.78
2018-06-05T15:49:22.828Z,6.90
2018-06-05T15:51:52.607Z,7.28
2018-06-05T15:54:22.498Z,8.10
2018-06-05T15:56:52.423Z,7.87
2018-06-05T15:59:23.429Z,6.95
2018-06-05T16:01:53.449Z,7.85
2018-06-05T16:04:23.202Z,10.25
2018-06-05T16:06:53.325Z,9.28
2018-06-05T16:09:23.032Z,8.63
2018-06-05T16:11:53.497Z,9.43
2018-06-05T16:14:23.616Z,9.18
2018-06-05T16:16:53.536Z,9.88
2018-06-05T16:19:24.477Z,8.40
2018-06-05T16:21:55.886Z,7.70
2018-06-05T16:24:25.796Z,8.85
2018-06-05T16:26:56.663Z,7.45
2018-06-05T16:29:27.626Z,7.58
2018-06-05T16:31:58.793Z,7.53
2018-06-05T16:34:28.667Z,6.20
2018-06-05T16:36:59.275Z,6.97
2018-06-05T16:39:30.601Z,6.53
2018-06-05T16:42:00.774Z,6.80
2018-06-05T16:44:31.231Z,6.60
2018-06-05T16:47:00.986Z,7.22
2018-06-05T16:49:30.760Z,8.85
2018-06-05T16:52:02.782Z,9.75
2018-06-05T16:54:32.676Z,12.13
2018-06-05T16:57:02.403Z,10.83
2018-06-05T16:59:32.318Z,12.90
2018-06-05T17:02:02.078Z,12.73
2018-06-05T17:04:32.678Z,11.05
2018-06-05T17:07:03.381Z,11.18
2018-06-05T17:09:33.844Z,11.30
2018-06-05T17:12:03.844Z,10.93
2018-06-05T17:14:33.852Z,11.50
2018-06-05T17:17:03.666Z,10.60
2018-06-05T17:19:35.100Z,10.40
2018-06-05T17:22:05.752Z,11.18
2018-06-05T17:24:35.773Z,11.00
2018-06-05T17:27:07.112Z,11.33
2018-06-05T17:29:37.084Z,9.75
2018-06-05T17:32:09.683Z,11.18
2018-06-05T17:34:42.941Z,12.13
2018-06-05T17:37:13.074Z,11.83
2018-06-05T17:48:58.746Z,11.48
2018-06-05T17:51:38.426Z,11.43
2018-06-05T17:54:09.226Z,11.27
2018-06-05T17:56:39.761Z,11.65
2018-06-05T17:59:10.710Z,11.45
2018-06-05T18:01:41.326Z,11.38
2018-06-05T18:04:12.636Z,12.55
2018-06-05T18:06:42.483Z,12.03
2018-06-05T18:09:13.130Z,11.22
2018-06-05T18:11:44.639Z,12.40
2018-06-05T18:14:16.280Z,11.25
2018-06-05T18:16:46.237Z,10.72
2018-06-05T18:19:16.658Z,11.00
2018-06-05T18:21:47.280Z,11.10
2018-06-05T18:24:18.327Z,12.03
2018-06-05T18:26:50.003Z,11.38
2018-06-05T18:29:19.806Z,11.10
2018-06-05T18:31:51.296Z,10.48
2018-06-05T18:34:20.955Z,10.70
2018-06-05T18:36:52.774Z,11.05
2018-06-05T18:39:24.640Z,11.12
2018-06-05T18:41:54.946Z,11.03
2018-06-05T18:44:24.718Z,11.05
2018-06-05T18:46:55.437Z,11.43
2018-06-05T18:49:26.734Z,12.03
2018-06-05T18:51:58.428Z,12.18
2018-06-05T18:54:28.377Z,10.75
2018-06-05T18:56:59.243Z,11.73
2018-06-05T18:59:29.093Z,12.40
2018-06-05T19:01:58.955Z,10.25
2018-06-05T19:04:29.179Z,12.15
2018-06-05T19:06:59.861Z,13.18
2018-06-05T19:09:30.685Z,12.88
2018-06-05T19:12:00.944Z,12.23
2018-06-05T19:14:31.793Z,11.95
2018-06-05T19:17:01.633Z,11.35
2018-06-05T19:19:31.917Z,11.12
2018-06-05T19:22:03.042Z,12.60
2018-06-05T19:24:33.048Z,11.83
2018-06-05T19:27:03.982Z,14.07
2018-06-05T19:29:34.786Z,11.75
2018-06-05T19:32:04.984Z,13.22
2018-06-05T19:34:34.839Z,12.65
2018-06-05T19:37:05.001Z,13.18
2018-06-05T19:39:35.803Z,12.95
2018-06-05T19:42:05.577Z,12.70
2018-06-05T19:44:36.930Z,12.58
2018-06-05T19:47:06.776Z,14.05
2018-06-05T19:49:37.279Z,14.25
2018-06-05T19:52:08.195Z,16.55
2018-06-05T19:54:39.720Z,14.93
2018-06-05T19:57:10.180Z,16.07
2018-06-05T19:59:39.603Z,15.78
2018-06-05T20:02:12.085Z,16.70
2018-06-05T20:04:41.944Z,15.30
2018-06-05T20:07:12.841Z,16.12
2018-06-05T20:09:44.025Z,16.80
2018-06-05T20:12:13.746Z,15.75
2018-06-05T20:14:43.731Z,15.48
2018-06-05T20:17:13.714Z,16.93
2018-06-05T20:19:43.936Z,16.70
2018-06-05T20:22:14.753Z,16.87
2018-06-05T20:24:44.962Z,16.53
2018-06-05T20:27:15.102Z,18.07
2018-06-05T20:29:46.227Z,18.55
2018-06-05T20:32:17.692Z,17.82
2018-06-05T20:34:49.861Z,18.65
2018-06-05T20:37:20.183Z,16.67
2018-06-05T20:39:49.963Z,16.57
2018-06-05T20:42:22.249Z,16.20
2018-06-05T20:44:52.917Z,15.40
2018-06-05T20:47:24.827Z,16.30
2018-06-05T20:49:56.956Z,16.80
2018-06-05T20:52:27.377Z,16.27
2018-06-05T20:54:57.372Z,16.02
2018-06-05T20:57:29.218Z,16.97
2018-06-05T21:00:01.795Z,15.50
2018-06-05T21:02:32.375Z,15.28
2018-06-05T21:05:02.620Z,16.27
2018-06-05T21:07:32.401Z,16.73
2018-06-05T21:10:03.037Z,15.70
2018-06-05T21:12:34.461Z,15.80
2018-06-05T21:15:04.843Z,15.63
2018-06-05T21:17:35.686Z,16.37
2018-06-05T21:20:06.056Z,15.78
2018-06-05T21:22:42.409Z,16.50
2018-06-05T21:25:12.469Z,15.08
2018-06-05T21:27:43.913Z,15.83
2018-06-05T21:30:15.334Z,16.20
2018-06-05T21:32:46.451Z,16.67
2018-06-05T21:35:16.346Z,15.50
2018-06-05T21:37:50.394Z,16.95
2018-06-05T21:40:23.036Z,17.70
2018-06-05T21:42:53.671Z,16.15
2018-06-05T21:45:25.039Z,15.93
2018-06-05T21:47:56.838Z,16.90
2018-06-05T21:50:27.074Z,15.07
2018-06-05T21:52:57.391Z,16.02
2018-06-05T21:55:27.091Z,16.10
2018-06-05T21:57:57.185Z,16.67
2018-06-05T22:00:27.227Z,18.15
2018-06-05T22:02:56.976Z,16.17
2018-06-05T22:05:27.295Z,18.10
2018-06-05T22:07:56.976Z,17.83
2018-06-05T22:10:28.007Z,17.87
2018-06-05T22:12:57.995Z,19.10
2018-06-05T22:15:28.650Z,17.85
2018-06-05T22:17:58.770Z,18.13
2018-06-05T22:20:28.630Z,18.50
2018-06-05T22:22:58.412Z,18.23
2018-06-05T22:25:28.615Z,18.20
2018-06-05T22:27:58.635Z,17.67
2018-06-05T22:30:28.503Z,17.00
2018-06-05T22:32:59.990Z,18.00
2018-06-05T22:35:31.648Z,18.17
2018-06-05T22:38:02.026Z,17.40
2018-06-05T22:40:32.633Z,16.87
2018-06-05T22:43:02.408Z,18.37
2018-06-05T22:45:32.360Z,17.17
2018-06-05T22:48:03.880Z,17.97
2018-06-05T22:50:34.527Z,17.60
2018-06-05T22:53:05.526Z,16.40
2018-06-05T22:55:35.465Z,16.48
2018-06-05T22:58:05.189Z,17.37
2018-06-05T23:00:35.809Z,16.30
2018-06-05T23:03:05.658Z,17.17
2018-06-05T23:05:35.997Z,15.97
2018-06-05T23:08:05.918Z,17.07
2018-06-05T23:10:38.489Z,15.37
2018-06-05T23:13:09.423Z,16.73
2018-06-05T23:15:39.876Z,16.23
2018-06-05T23:18:10.475Z,16.13
2018-06-05T23:20:40.520Z,16.40
2018-06-05T23:23:11.073Z,16.60
2018-06-05T23:25:45.262Z,15.37
2018-06-05T23:28:15.086Z,16.03
2018-06-05T23:30:44.812Z,14.57
2018-06-05T23:33:15.415Z,14.83
2018-06-05T23:35:46.228Z,15.10
2018-06-05T23:38:16.263Z,14.93
2018-06-05T23:40:46.203Z,14.67
2018-06-05T23:43:16.208Z,14.47
2018-06-05T23:45:46.801Z,13.87
2018-06-05T23:48:17.355Z,15.03
2018-06-05T23:50:47.797Z,13.87
2018-06-05T23:53:18.467Z,14.07
2018-06-05T23:55:49.859Z,14.07
2018-06-05T23:58:20.347Z,13.20
